Time;durP1;ratioP1;P1;durP2;ratioP2;P2;SDS_P1;SDS_P2;PMS_P1;PMS_P2;Temp;Humidity;BMP_temperature;BMP_pressure;BME280_temperature;BME280_humidity;BME280_pressure;Samples;Min_cycle;Max_cycle;Signal;HPM_P1;HPM_P2
2021/09/06 00:02:17;;;;;;;9.75;4.22;;;;;;;15.45;94.27;101697.75;5008259;28;20033;-67
2021/09/06 00:04:42;;;;;;;11.77;4.13;;;;;;;15.43;94.13;101689.94;5017920;28;20025;-67
2021/09/06 00:07:08;;;;;;;11.57;4.50;;;;;;;15.25;94.60;101691.53;5015086;28;20433;-67
2021/09/06 00:09:33;;;;;;;10.23;4.30;;;;;;;15.31;94.29;101680.00;5018808;28;20695;-66
2021/09/06 00:11:59;;;;;;;9.95;3.75;;;;;;;15.28;94.32;101682.66;5014990;28;20034;-66
2021/09/06 00:14:25;;;;;;;11.25;3.97;;;;;;;15.18;94.48;101678.63;5017207;28;20026;-67
2021/09/06 00:16:50;;;;;;;9.73;4.13;;;;;;;15.14;94.59;101671.53;5019995;28;20493;-67
2021/09/06 00:19:16;;;;;;;10.60;5.05;;;;;;;15.16;95.02;101671.97;5012763;28;21007;-67
2021/09/06 00:21:42;;;;;;;12.50;4.03;;;;;;;15.19;94.25;101671.25;5008488;28;20864;-67
2021/09/06 00:24:08;;;;;;;9.90;4.05;;;;;;;15.13;94.26;101659.13;5018484;28;20168;-67
2021/09/06 00:26:34;;;;;;;9.80;4.60;;;;;;;15.17;94.22;101662.69;5008085;28;20108;-66
2021/09/06 00:28:59;;;;;;;7.95;3.55;;;;;;;15.10;93.91;101660.63;5002978;28;20037;-67
2021/09/06 00:31:25;;;;;;;11.00;3.63;;;;;;;15.06;94.37;101673.34;4990636;28;20032;-66
2021/09/06 00:33:51;;;;;;;10.55;4.07;;;;;;;15.01;94.65;101678.28;5011608;28;20666;-66
2021/09/06 00:36:16;;;;;;;9.00;3.60;;;;;;;15.08;94.45;101673.78;5011150;28;20109;-66
2021/09/06 00:38:42;;;;;;;9.60;3.92;;;;;;;15.04;93.97;101674.88;5016148;28;20116;-67
2021/09/06 00:41:08;;;;;;;8.85;4.10;;;;;;;14.95;94.09;101677.00;5019115;28;20486;-67
2021/09/06 00:43:36;;;;;;;8.77;3.67;;;;;;;14.97;93.80;101664.66;5005895;28;20040;-67
2021/09/06 00:46:02;;;;;;;9.73;4.47;;;;;;;15.03;93.50;101667.84;5022928;28;20041;-67
2021/09/06 00:48:29;;;;;;;9.57;3.92;;;;;;;15.02;93.80;101671.72;5012655;28;20024;-66
2021/09/06 00:50:55;;;;;;;8.93;4.13;;;;;;;14.69;94.93;101674.19;5015909;28;20033;-67
2021/09/06 00:53:21;;;;;;;6.75;3.25;;;;;;;14.73;95.18;101659.53;5002294;28;20033;-66
2021/09/06 00:55:47;;;;;;;7.93;4.00;;;;;;;14.61;95.88;101662.41;5009909;28;20038;-66
2021/09/06 00:58:13;;;;;;;8.02;3.60;;;;;;;14.65;96.01;101670.59;5024216;28;20503;-66
2021/09/06 01:00:39;;;;;;;9.27;4.00;;;;;;;14.76;95.77;101669.69;5006270;28;20029;-67
2021/09/06 01:03:05;;;;;;;8.95;4.10;;;;;;;14.80;95.66;101665.09;4999688;28;20049;-66
2021/09/06 01:05:31;;;;;;;8.35;4.22;;;;;;;14.78;95.58;101666.59;5014848;28;20025;-66
2021/09/06 01:08:31;;;;;;;8.95;4.13;;;;;;;14.74;95.63;101660.31;4995992;28;20076;-66
2021/09/06 01:11:25;;;;;;;9.30;3.60;;;;;;;14.70;95.93;101665.69;4985498;28;20111;-69
2021/09/06 01:14:11;;;;;;;8.07;4.07;;;;;;;14.67;95.83;101660.97;4963380;28;20124;-67
2021/09/06 01:16:39;;;;;;;8.45;3.97;;;;;;;14.63;96.71;101664.75;5013901;28;20602;-67
2021/09/06 01:19:05;;;;;;;10.07;4.15;;;;;;;14.71;96.18;101666.47;5002184;28;20029;-67
2021/09/06 01:21:32;;;;;;;13.23;4.22;;;;;;;14.74;95.86;101669.25;4967969;28;20037;-66
2021/09/06 01:24:17;;;;;;;7.03;3.55;;;;;;;14.53;96.42;101668.03;5018762;28;20145;-67
2021/09/06 01:26:46;;;;;;;8.85;3.95;;;;;;;14.44;96.98;101663.59;4997362;28;20018;-67
2021/09/06 01:29:11;;;;;;;9.88;4.03;;;;;;;14.46;97.12;101655.91;5002598;28;20034;-66
2021/09/06 01:31:37;;;;;;;11.15;4.07;;;;;;;14.58;96.62;101663.09;4995721;28;20029;-66
2021/09/06 01:34:05;;;;;;;8.13;3.47;;;;;;;14.59;96.79;101670.09;4983724;28;20400;-67
2021/09/06 01:36:33;;;;;;;10.10;4.10;;;;;;;14.65;96.28;101674.09;4996507;28;20029;-66
2021/09/06 01:38:59;;;;;;;7.95;4.10;;;;;;;14.70;95.79;101665.69;4988348;28;20045;-66
2021/09/06 01:41:25;;;;;;;10.38;4.30;;;;;;;14.54;96.17;101656.81;4993423;28;20037;-66
2021/09/06 01:43:51;;;;;;;7.90;3.90;;;;;;;14.28;97.25;101653.97;4993782;28;20030;-67
2021/09/06 01:46:19;;;;;;;9.70;3.65;;;;;;;14.30;97.14;101651.69;5000940;28;20022;-67
2021/09/06 01:48:45;;;;;;;9.52;3.90;;;;;;;14.22;97.73;101655.34;5011472;28;20037;-66
2021/09/06 01:51:10;;;;;;;10.90;4.10;;;;;;;14.15;98.29;101652.50;5010259;28;20025;-66
2021/09/06 01:53:36;;;;;;;9.38;3.65;;;;;;;14.30;97.52;101655.16;4979081;28;20030;-66
2021/09/06 01:56:01;;;;;;;7.20;3.25;;;;;;;14.27;97.70;101655.06;4996492;28;20038;-68
2021/09/06 01:58:28;;;;;;;8.15;3.53;;;;;;;14.17;97.85;101664.53;5001329;28;20092;-68
2021/09/06 02:00:55;;;;;;;9.77;4.30;;;;;;;14.26;96.95;101657.00;5006888;28;20473;-68
2021/09/06 02:03:28;;;;;;;9.30;3.92;;;;;;;14.27;96.48;101665.91;4989623;28;20033;-68
2021/09/06 02:05:56;;;;;;;7.80;3.53;;;;;;;14.31;96.24;101664.88;4989126;28;20072;-66
2021/09/06 02:08:33;;;;;;;6.65;3.53;;;;;;;14.09;96.75;101673.63;4987395;28;20033;-68
2021/09/06 02:11:00;;;;;;;7.60;3.80;;;;;;;14.11;96.71;101670.59;4992427;28;20025;-66
2021/09/06 02:13:25;;;;;;;8.45;3.58;;;;;;;14.07;96.58;101662.34;4995556;28;20541;-68
2021/09/06 02:15:52;;;;;;;9.35;3.60;;;;;;;13.90;97.35;101665.44;4998930;28;20030;-66
2021/09/06 02:18:21;;;;;;;7.53;3.17;;;;;;;13.97;96.73;101660.22;4994972;28;20037;-67
2021/09/06 02:20:46;;;;;;;8.30;3.53;;;;;;;13.90;97.21;101653.84;5004847;28;20022;-67
2021/09/06 02:23:13;;;;;;;7.55;3.58;;;;;;;13.90;97.07;101659.28;5000471;28;20030;-66
2021/09/06 02:25:40;;;;;;;7.47;3.38;;;;;;;13.98;96.66;101658.28;5001180;28;20029;-67
2021/09/06 02:28:05;;;;;;;7.72;3.38;;;;;;;13.83;96.69;101659.88;4999845;28;20087;-66
2021/09/06 02:30:31;;;;;;;7.70;3.72;;;;;;;13.83;97.14;101659.88;4977254;28;20041;-66
2021/09/06 02:32:57;;;;;;;6.88;3.13;;;;;;;13.97;96.46;101670.25;5005058;28;20030;-66
2021/09/06 02:35:28;;;;;;;8.93;3.45;;;;;;;13.97;96.19;101667.56;4991000;28;20372;-68
2021/09/06 02:37:54;;;;;;;7.30;3.47;;;;;;;13.73;96.29;101660.41;4998224;28;20052;-67
2021/09/06 02:40:19;;;;;;;8.57;3.13;;;;;;;13.58;97.05;101653.88;5009302;28;20034;-66
2021/09/06 02:42:47;;;;;;;8.40;4.00;;;;;;;13.72;96.93;101664.28;4983928;28;20027;-66
2021/09/06 02:45:13;;;;;;;7.40;3.60;;;;;;;13.70;96.64;101663.03;4994311;28;20383;-67
2021/09/06 02:47:47;;;;;;;6.55;3.40;;;;;;;13.81;96.20;101667.56;4995183;28;20037;-66
2021/09/06 02:50:15;;;;;;;10.70;4.38;;;;;;;13.80;96.20;101665.97;5007258;28;20406;-67
2021/09/06 02:52:42;;;;;;;8.70;3.92;;;;;;;13.78;95.96;101670.97;4995158;28;20030;-67
2021/09/06 02:55:09;;;;;;;10.23;3.45;;;;;;;13.77;95.77;101672.13;4986720;28;20057;-66
2021/09/06 02:57:39;;;;;;;5.05;3.10;;;;;;;13.78;95.64;101672.91;4991788;28;20447;-68
2021/09/06 03:00:05;;;;;;;8.68;3.80;;;;;;;13.82;95.65;101677.25;5016234;28;20069;-67
2021/09/06 03:02:32;;;;;;;8.98;3.28;;;;;;;13.57;95.80;101676.66;5006295;28;20041;-66
2021/09/06 03:04:58;;;;;;;10.55;4.00;;;;;;;13.48;96.50;101673.34;4985728;28;20052;-66
2021/09/06 03:07:24;;;;;;;8.35;3.47;;;;;;;13.41;96.62;101672.38;4992548;28;20040;-67
2021/09/06 03:09:51;;;;;;;7.13;3.58;;;;;;;13.41;97.57;101672.38;4977844;28;20026;-66
2021/09/06 03:12:17;;;;;;;8.63;3.42;;;;;;;13.44;97.87;101671.69;4996859;28;20045;-66
2021/09/06 03:14:45;;;;;;;6.22;2.72;;;;;;;13.36;98.06;101676.13;4983760;28;20053;-66
2021/09/06 03:17:10;;;;;;;8.80;3.25;;;;;;;13.29;98.62;101672.47;4991094;28;20061;-67
2021/09/06 03:19:36;;;;;;;6.43;3.22;;;;;;;13.46;98.25;101664.00;5004301;28;20034;-66
2021/09/06 03:22:03;;;;;;;8.00;3.70;;;;;;;13.47;98.23;101663.66;4985381;28;20042;-66
2021/09/06 03:24:29;;;;;;;7.63;3.40;;;;;;;13.55;98.34;101667.31;5002109;28;20541;-66
2021/09/06 03:26:54;;;;;;;9.32;3.80;;;;;;;13.55;99.30;101664.59;4997134;28;20026;-66
2021/09/06 03:29:20;;;;;;;11.18;4.80;;;;;;;13.37;100.00;101664.19;5011148;28;20025;-66
2021/09/06 03:31:46;;;;;;;13.40;4.00;;;;;;;13.31;100.00;101667.50;4996884;28;20556;-67
2021/09/06 03:34:13;;;;;;;13.38;4.18;;;;;;;13.29;100.00;101659.72;5013842;28;20040;-67
2021/09/06 03:36:40;;;;;;;11.98;4.57;;;;;;;13.41;100.00;101658.84;4993516;28;20022;-67
2021/09/06 03:39:09;;;;;;;11.52;4.13;;;;;;;13.29;100.00;101653.53;4982756;28;20053;-66
2021/09/06 03:41:35;;;;;;;12.45;4.65;;;;;;;13.23;100.00;101650.28;5010834;28;20890;-67
2021/09/06 03:44:01;;;;;;;10.45;4.30;;;;;;;13.18;100.00;101649.75;4989208;28;20514;-67
2021/09/06 03:46:30;;;;;;;12.95;4.22;;;;;;;13.23;100.00;101646.78;5008862;28;20017;-66
2021/09/06 03:48:57;;;;;;;10.52;4.85;;;;;;;13.18;100.00;101644.34;4976006;28;20125;-66
2021/09/06 03:51:23;;;;;;;14.02;5.57;;;;;;;13.13;100.00;101647.28;4987492;28;20109;-66
2021/09/06 03:53:49;;;;;;;13.30;4.65;;;;;;;13.08;100.00;101652.97;4968855;28;20033;-67
2021/09/06 03:56:16;;;;;;;9.48;4.72;;;;;;;13.20;100.00;101656.38;5003550;28;20518;-67
2021/09/06 04:01:39;;;;;;;14.52;5.18;;;;;;;12.99;100.00;101652.31;4958684;28;20058;-67
2021/09/06 04:04:05;;;;;;;10.90;4.78;;;;;;;12.89;100.00;101645.47;4941455;28;20034;-69
2021/09/06 04:06:30;;;;;;;14.60;4.72;;;;;;;12.71;100.00;101652.31;4969366;28;20474;-68
2021/09/06 04:08:56;;;;;;;13.65;4.60;;;;;;;12.70;100.00;101665.06;4947796;28;20035;-67
2021/09/06 04:11:22;;;;;;;11.73;4.72;;;;;;;12.72;100.00;101653.13;4964411;28;20394;-68
2021/09/06 04:13:48;;;;;;;11.02;4.60;;;;;;;12.58;100.00;101662.38;4965539;28;20584;-68
2021/09/06 04:16:15;;;;;;;13.35;4.50;;;;;;;12.74;100.00;101657.03;4953203;28;20093;-68
2021/09/06 04:18:40;;;;;;;11.05;4.72;;;;;;;12.80;100.00;101655.66;4970962;28;20034;-68
2021/09/06 04:21:06;;;;;;;11.32;4.68;;;;;;;12.78;100.00;101659.84;4959648;28;20045;-68
2021/09/06 04:23:33;;;;;;;11.00;4.72;;;;;;;12.89;100.00;101653.59;4958702;28;20030;-68
2021/09/06 04:26:02;;;;;;;14.38;4.50;;;;;;;12.82;100.00;101658.00;4946171;28;20030;-68
2021/09/06 04:28:34;;;;;;;10.43;4.40;;;;;;;12.95;100.00;101662.25;4956916;28;20038;-67
2021/09/06 04:31:01;;;;;;;8.73;4.03;;;;;;;13.04;100.00;101662.91;4948367;28;20042;-66
2021/09/06 04:33:30;;;;;;;10.80;4.40;;;;;;;12.98;100.00;101656.94;4968184;28;20640;-66
2021/09/06 04:35:57;;;;;;;11.27;4.53;;;;;;;12.86;100.00;101661.59;4951411;28;20035;-66
2021/09/06 04:38:26;;;;;;;8.20;3.97;;;;;;;12.90;100.00;101665.97;4954684;28;20031;-67
2021/09/06 04:40:51;;;;;;;8.20;3.67;;;;;;;12.94;100.00;101657.97;4951496;28;20026;-65
2021/09/06 04:43:17;;;;;;;7.45;3.65;;;;;;;12.80;100.00;101654.88;4957732;28;20041;-66
2021/09/06 04:45:43;;;;;;;7.72;3.72;;;;;;;12.93;100.00;101664.53;4966234;28;20027;-65
2021/09/06 04:48:10;;;;;;;7.30;3.55;;;;;;;12.94;100.00;101669.56;4970522;28;20442;-66
2021/09/06 04:50:35;;;;;;;11.38;4.38;;;;;;;13.04;100.00;101661.00;4956157;28;20035;-65
2021/09/06 04:53:01;;;;;;;10.65;3.97;;;;;;;13.09;100.00;101663.44;4953799;28;20030;-65
2021/09/06 04:55:26;;;;;;;9.98;3.88;;;;;;;13.09;100.00;101668.06;4972306;28;20105;-66
2021/09/06 04:57:52;;;;;;;9.75;3.78;;;;;;;13.01;100.00;101671.66;4964176;28;20381;-65
2021/09/06 05:00:18;;;;;;;11.70;4.78;;;;;;;13.12;100.00;101668.16;4968899;28;20034;-66
2021/09/06 05:02:44;;;;;;;12.18;4.93;;;;;;;13.25;100.00;101671.56;4972459;28;20026;-66
2021/09/06 05:05:10;;;;;;;9.90;4.43;;;;;;;13.33;100.00;101674.13;4950245;28;20042;-65
2021/09/06 05:07:36;;;;;;;11.65;4.88;;;;;;;13.30;100.00;101665.91;4956336;28;20037;-66
2021/09/06 05:10:04;;;;;;;14.80;5.60;;;;;;;13.39;100.00;101672.72;4955998;28;20122;-66
2021/09/06 05:12:32;;;;;;;14.02;5.18;;;;;;;13.21;100.00;101676.09;4969209;28;20039;-66
2021/09/06 05:14:58;;;;;;;12.27;5.30;;;;;;;13.14;100.00;101687.50;4955016;28;20034;-67
2021/09/06 05:17:24;;;;;;;14.02;5.13;;;;;;;13.19;100.00;101690.00;4959983;28;20022;-69
2021/09/06 05:19:52;;;;;;;13.30;5.05;;;;;;;13.27;100.00;101678.22;4949881;28;20038;-66
2021/09/06 05:22:17;;;;;;;12.60;5.13;;;;;;;13.31;100.00;101687.22;4954743;28;20034;-65
2021/09/06 05:24:43;;;;;;;16.00;5.30;;;;;;;13.33;100.00;101684.16;4965870;28;20030;-66
2021/09/06 05:27:09;;;;;;;11.05;4.20;;;;;;;13.38;100.00;101686.59;4961409;28;20029;-66
2021/09/06 05:29:35;;;;;;;12.60;5.07;;;;;;;13.40;100.00;101695.16;4971084;28;20031;-65
2021/09/06 05:32:02;;;;;;;12.13;4.78;;;;;;;13.50;100.00;101700.06;4952380;28;20465;-66
2021/09/06 05:34:27;;;;;;;13.88;5.45;;;;;;;13.58;100.00;101696.41;4951419;28;20467;-66
2021/09/06 05:36:53;;;;;;;12.40;5.15;;;;;;;13.65;100.00;101701.97;4955504;28;20038;-67
2021/09/06 05:39:18;;;;;;;16.80;5.50;;;;;;;13.69;100.00;101699.34;4953284;28;20408;-67
2021/09/06 05:42:02;;;;;;;12.13;5.15;;;;;;;13.71;100.00;101692.47;4952379;28;20042;-66
2021/09/06 05:44:30;;;;;;;9.05;4.35;;;;;;;13.82;100.00;101701.63;4958467;28;20050;-67
2021/09/06 05:47:00;;;;;;;11.93;4.47;;;;;;;13.87;100.00;101695.16;4933449;28;20039;-68
2021/09/06 05:49:29;;;;;;;12.57;5.38;;;;;;;13.86;100.00;101699.78;4961222;28;20032;-69
2021/09/06 05:51:55;;;;;;;15.02;5.05;;;;;;;13.96;100.00;101695.75;4957086;28;20125;-68
2021/09/06 05:54:28;;;;;;;17.20;5.43;;;;;;;14.00;100.00;101694.72;4965375;28;20083;-68
2021/09/06 05:56:55;;;;;;;15.43;5.22;;;;;;;14.08;100.00;101696.44;4961658;28;20058;-68
2021/09/06 05:59:24;;;;;;;14.77;5.63;;;;;;;14.16;100.00;101714.44;4954195;28;20376;-66
2021/09/06 06:01:50;;;;;;;15.70;5.82;;;;;;;14.21;100.00;101708.75;4955434;28;20037;-65
2021/09/06 06:04:16;;;;;;;13.75;5.50;;;;;;;14.29;100.00;101710.50;4948985;28;20616;-67
2021/09/06 06:06:46;;;;;;;12.35;5.25;;;;;;;14.35;100.00;101721.84;4958079;28;20023;-67
2021/09/06 06:09:13;;;;;;;14.32;5.38;;;;;;;14.33;100.00;101724.13;4949130;28;20686;-68
2021/09/06 06:11:40;;;;;;;12.63;5.28;;;;;;;14.41;100.00;101720.44;4960392;28;20032;-67
2021/09/06 06:14:13;;;;;;;13.10;4.53;;;;;;;14.52;100.00;101724.16;4955687;28;20503;-68
2021/09/06 06:16:39;;;;;;;9.85;4.57;;;;;;;14.61;100.00;101722.06;4958949;28;20402;-67
2021/09/06 06:19:06;;;;;;;11.70;4.70;;;;;;;14.62;100.00;101726.31;4961102;28;20443;-68
2021/09/06 06:21:45;;;;;;;14.85;4.93;;;;;;;14.74;100.00;101730.81;4952139;28;20031;-67
2021/09/06 06:24:30;;;;;;;11.70;4.95;;;;;;;14.88;100.00;101720.28;4950284;28;20033;-67
2021/09/06 06:27:12;;;;;;;;;;;;;;;14.86;100.00;101722.56;4967901;28;20388;-66
2021/09/06 06:29:38;;;;;;;12.95;4.70;;;;;;;14.95;100.00;101731.25;4967015;28;19989;-67
2021/09/06 06:32:04;;;;;;;13.07;5.25;;;;;;;14.96;100.00;101730.88;4958640;28;20026;-66
2021/09/06 06:34:29;;;;;;;10.75;4.95;;;;;;;14.98;100.00;101727.84;4965711;28;20039;-67
2021/09/06 06:36:55;;;;;;;12.52;4.93;;;;;;;15.07;100.00;101723.75;4954051;28;20045;-67
2021/09/06 06:39:24;;;;;;;14.77;5.32;;;;;;;15.18;100.00;101722.03;4957426;28;20031;-67
2021/09/06 06:41:54;;;;;;;13.45;5.10;;;;;;;15.30;100.00;101734.66;4953367;28;20034;-67
2021/09/06 06:44:23;;;;;;;12.43;5.30;;;;;;;15.43;100.00;101732.59;4966230;28;20062;-67
2021/09/06 06:46:49;;;;;;;12.82;5.65;;;;;;;15.58;100.00;101723.56;4963517;28;20031;-68
2021/09/06 06:49:16;;;;;;;16.05;6.50;;;;;;;15.67;100.00;101733.03;4948629;28;20035;-67
2021/09/06 06:51:43;;;;;;;16.10;6.50;;;;;;;15.76;100.00;101730.06;4977977;28;20027;-67
2021/09/06 06:54:09;;;;;;;14.82;6.35;;;;;;;15.79;100.00;101732.84;4970583;28;20085;-68
2021/09/06 06:56:38;;;;;;;20.77;6.35;;;;;;;15.89;100.00;101737.66;4951167;28;20090;-67
2021/09/06 06:59:07;;;;;;;14.02;6.38;;;;;;;15.98;100.00;101730.06;4972032;28;20121;-68
2021/09/06 07:01:33;;;;;;;17.67;7.03;;;;;;;16.13;100.00;101736.47;4957224;28;20105;-67
2021/09/06 07:03:58;;;;;;;16.00;6.80;;;;;;;16.30;100.00;101737.91;4952835;28;20092;-66
2021/09/06 07:06:27;;;;;;;15.10;7.50;;;;;;;16.53;100.00;101728.53;4938236;28;20030;-68
2021/09/06 07:08:54;;;;;;;18.40;6.93;;;;;;;16.69;100.00;101736.53;4955388;28;20046;-67
2021/09/06 07:11:20;;;;;;;17.15;7.07;;;;;;;16.84;100.00;101741.00;4950131;28;20491;-67
2021/09/06 07:13:46;;;;;;;16.63;6.88;;;;;;;16.94;100.00;101737.63;4972701;28;20037;-67
2021/09/06 07:16:11;;;;;;;17.38;6.93;;;;;;;17.01;100.00;101735.00;4971373;28;20035;-68
2021/09/06 07:18:37;;;;;;;18.63;7.47;;;;;;;16.94;100.00;101743.06;4951370;28;20038;-67
2021/09/06 07:21:02;;;;;;;17.40;6.72;;;;;;;16.94;100.00;101724.81;4947124;28;20059;-67
2021/09/06 07:23:29;;;;;;;16.65;7.50;;;;;;;16.94;100.00;101743.06;4969378;28;20027;-68
2021/09/06 07:25:55;;;;;;;18.08;6.75;;;;;;;17.02;100.00;101739.28;4949044;28;20027;-68
2021/09/06 07:28:21;;;;;;;15.85;7.03;;;;;;;17.10;100.00;101739.00;4975603;28;20043;-67
2021/09/06 07:30:47;;;;;;;20.58;7.25;;;;;;;17.12;100.00;101738.63;4978039;28;20039;-67
2021/09/06 07:33:13;;;;;;;17.25;7.13;;;;;;;17.11;100.00;101735.09;4956559;28;20510;-67
2021/09/06 07:35:39;;;;;;;17.90;7.65;;;;;;;17.24;100.00;101743.81;4941579;28;20027;-67
2021/09/06 07:38:04;;;;;;;17.77;7.45;;;;;;;17.27;100.00;101734.88;4953229;28;20031;-67
2021/09/06 07:40:32;;;;;;;16.88;7.20;;;;;;;17.36;100.00;101740.03;4963677;28;20031;-67
2021/09/06 07:42:58;;;;;;;17.80;8.02;;;;;;;17.43;100.00;101742.81;4952400;28;20031;-68
2021/09/06 07:45:23;;;;;;;16.38;7.22;;;;;;;17.55;100.00;101758.94;4943614;28;20027;-67
2021/09/06 07:47:52;;;;;;;20.02;8.02;;;;;;;17.63;100.00;101758.66;4976865;28;20023;-67
2021/09/06 07:50:29;;;;;;;19.55;7.50;;;;;;;17.72;100.00;101750.94;4954623;28;20030;-67
2021/09/06 07:52:54;;;;;;;15.90;6.93;;;;;;;17.80;100.00;101752.56;4969773;28;20037;-67
2021/09/06 07:55:20;;;;;;;21.52;7.93;;;;;;;17.78;100.00;101752.16;4970581;28;20506;-67
2021/09/06 07:57:46;;;;;;;21.67;7.65;;;;;;;17.74;100.00;101770.41;4966212;28;20054;-68
2021/09/06 08:00:12;;;;;;;16.60;7.30;;;;;;;17.81;100.00;101765.03;4957041;28;20577;-67
2021/09/06 08:02:51;;;;;;;19.48;8.02;;;;;;;17.92;100.00;101768.59;4966287;28;20050;-68
2021/09/06 08:05:25;;;;;;;18.40;7.32;;;;;;;18.01;100.00;101760.91;4936116;28;20035;-67
2021/09/06 08:07:53;;;;;;;15.82;7.32;;;;;;;18.03;100.00;101763.25;4972337;28;20084;-68
2021/09/06 08:10:19;;;;;;;17.75;7.10;;;;;;;18.11;99.44;101755.91;4950539;28;20034;-67
2021/09/06 08:12:45;;;;;;;18.95;7.07;;;;;;;18.13;99.36;101751.66;4965024;28;20121;-67
2021/09/06 08:15:12;;;;;;;16.95;6.60;;;;;;;18.31;98.88;101759.97;4952997;28;20455;-68
2021/09/06 08:17:38;;;;;;;22.70;7.18;;;;;;;18.45;98.61;101766.31;4953137;28;20076;-67
2021/09/06 08:20:06;;;;;;;14.07;6.47;;;;;;;18.60;98.05;101765.22;4957482;28;20050;-67
2021/09/06 08:22:33;;;;;;;17.67;6.32;;;;;;;18.74;97.11;101764.50;4960455;28;20062;-68
2021/09/06 08:25:04;;;;;;;15.70;6.55;;;;;;;18.97;95.44;101775.16;4957717;28;20541;-67
2021/09/06 08:27:30;;;;;;;15.75;6.80;;;;;;;18.96;94.46;101773.59;4966766;28;20399;-67
2021/09/06 08:29:55;;;;;;;15.30;6.80;;;;;;;18.96;93.78;101773.59;4957870;28;20031;-67
2021/09/06 08:32:22;;;;;;;16.67;6.55;;;;;;;18.89;94.23;101779.81;4981626;28;20049;-68
2021/09/06 08:34:49;;;;;;;13.15;5.75;;;;;;;18.82;94.62;101775.09;4980846;28;20101;-67
2021/09/06 08:37:16;;;;;;;15.05;6.30;;;;;;;18.71;95.63;101779.72;4965385;28;20402;-68
2021/09/06 08:39:44;;;;;;;16.00;6.78;;;;;;;18.85;96.21;101787.22;4960760;28;20049;-68
2021/09/06 08:42:10;;;;;;;15.43;6.60;;;;;;;18.93;96.14;101780.59;4956196;28;20039;-68
2021/09/06 08:44:36;;;;;;;16.02;6.82;;;;;;;19.07;96.00;101785.31;4952464;28;21458;-68
2021/09/06 08:47:02;;;;;;;16.77;6.75;;;;;;;19.23;95.35;101789.31;4977804;28;20054;-68
2021/09/06 08:49:28;;;;;;;13.95;6.07;;;;;;;19.47;94.91;101782.38;4955941;28;20034;-68
2021/09/06 08:51:54;;;;;;;14.15;5.95;;;;;;;19.66;94.45;101785.53;4956410;28;20034;-68
2021/09/06 08:54:20;;;;;;;15.55;5.45;;;;;;;19.78;93.55;101793.34;4973742;28;20455;-68
2021/09/06 08:56:47;;;;;;;13.10;6.55;;;;;;;20.09;92.03;101788.31;4959150;28;20027;-66
2021/09/06 08:59:14;;;;;;;12.85;6.20;;;;;;;20.28;90.62;101794.19;4977304;28;20522;-68
2021/09/06 09:01:44;;;;;;;14.75;6.68;;;;;;;20.55;90.30;101797.25;4955581;28;20114;-69
2021/09/06 09:04:28;;;;;;;13.93;5.75;;;;;;;20.78;88.69;101792.13;4963875;28;20038;-68
2021/09/06 09:07:12;;;;;;;14.57;5.53;;;;;;;21.04;87.28;101796.38;4971360;28;20159;-68
2021/09/06 09:09:50;;;;;;;14.52;6.35;;;;;;;21.21;85.09;101796.28;4973317;28;20407;-67
2021/09/06 09:12:38;;;;;;;16.98;6.43;;;;;;;21.44;85.07;101795.78;4951859;28;20034;-68
2021/09/06 09:15:38;;;;;;;14.07;5.88;;;;;;;21.73;82.72;101793.63;4958528;28;20044;-68
2021/09/06 09:18:31;;;;;;;14.80;5.93;;;;;;;21.93;82.40;101802.91;4946646;28;20054;-68
2021/09/06 09:21:14;;;;;;;12.88;6.15;;;;;;;22.02;80.70;101795.00;4966672;28;20049;-68
2021/09/06 09:23:51;;;;;;;14.00;6.00;;;;;;;22.25;79.21;101798.72;4956183;28;20039;-67
2021/09/06 09:26:59;;;;;;;12.73;5.95;;;;;;;22.50;78.89;101795.72;4965422;28;20504;-68
2021/09/06 09:30:01;;;;;;;12.27;5.65;;;;;;;22.75;77.32;101801.75;4958903;28;20426;-67
2021/09/06 09:32:37;;;;;;;14.27;5.60;;;;;;;22.90;75.12;101803.16;4970851;28;20042;-68
2021/09/06 09:35:09;;;;;;;13.23;5.28;;;;;;;23.07;74.54;101798.66;4969247;28;20128;-68
2021/09/06 09:37:35;;;;;;;10.95;5.03;;;;;;;23.28;74.65;101795.63;4972297;28;20114;-68
2021/09/06 09:40:08;;;;;;;17.23;5.53;;;;;;;23.40;74.45;101791.56;4952085;28;20038;-68
2021/09/06 09:42:50;;;;;;;10.65;4.85;;;;;;;23.44;72.21;101790.28;4970583;28;20053;-68
2021/09/06 09:45:25;;;;;;;10.10;4.93;;;;;;;23.57;71.15;101790.53;4971771;28;20122;-67
2021/09/06 09:48:08;;;;;;;8.38;4.60;;;;;;;23.37;71.07;101787.66;4953377;28;20038;-68
2021/09/06 09:50:36;;;;;;;11.98;4.47;;;;;;;23.37;70.76;101782.16;4948829;28;20042;-68
2021/09/06 09:53:02;;;;;;;10.48;4.72;;;;;;;23.45;71.83;101785.59;4970280;28;20035;-68
2021/09/06 09:55:34;;;;;;;11.52;5.57;;;;;;;23.32;72.75;101781.84;4967588;28;20086;-68
2021/09/06 09:58:01;;;;;;;12.80;5.35;;;;;;;23.45;71.80;101780.09;4971676;28;20531;-67
2021/09/06 10:00:26;;;;;;;9.82;4.45;;;;;;;23.50;71.65;101774.13;4969402;22;1119386;-68
2021/09/06 10:02:55;;;;;;;10.05;4.03;;;;;;;23.72;70.22;101772.59;5029974;28;20374;-66
2021/09/06 10:05:25;;;;;;;12.55;5.00;;;;;;;23.54;70.08;101774.84;5023629;28;20485;-66
2021/09/06 10:07:51;;;;;;;9.25;4.15;;;;;;;23.42;70.53;101775.41;5029438;28;20033;-70
2021/09/06 10:10:19;;;;;;;11.77;4.75;;;;;;;23.19;71.67;101773.34;5025718;28;20029;-70
2021/09/06 10:12:48;;;;;;;13.43;4.57;;;;;;;23.38;68.98;101771.94;5011455;28;20029;-67
2021/09/06 10:15:14;;;;;;;11.32;4.40;;;;;;;23.36;69.50;101772.38;5007844;28;20057;-66
2021/09/06 10:17:47;;;;;;;16.02;4.70;;;;;;;23.51;67.39;101767.41;5009311;28;20038;-70
2021/09/06 10:20:13;;;;;;;11.70;4.10;;;;;;;23.46;65.41;101765.16;5012777;28;20105;-67
2021/09/06 10:22:43;;;;;;;7.93;3.97;;;;;;;23.54;67.81;101761.84;5019862;28;20037;-68
2021/09/06 10:25:11;;;;;;;9.90;4.53;;;;;;;23.55;67.31;101757.94;5007623;28;20544;-68
2021/09/06 10:27:54;;;;;;;8.52;4.40;;;;;;;23.51;67.86;101756.41;5020321;28;20052;-67
2021/09/06 10:30:19;;;;;;;9.13;4.20;;;;;;;23.63;68.59;101758.59;5017948;28;20060;-68
2021/09/06 10:32:48;;;;;;;8.65;4.13;;;;;;;23.66;68.32;101760.50;5001759;28;20033;-68
2021/09/06 10:35:14;;;;;;;9.63;4.13;;;;;;;23.65;67.38;101770.75;5007745;28;20504;-67
2021/09/06 10:37:42;;;;;;;9.90;4.28;;;;;;;23.56;67.65;101764.97;5010188;28;20149;-66
2021/09/06 10:40:12;;;;;;;8.40;3.90;;;;;;;23.53;67.33;101765.03;5010100;28;20068;-71
2021/09/06 10:42:41;;;;;;;10.40;4.43;;;;;;;23.49;68.15;101761.56;5008470;28;20030;-68
2021/09/06 10:45:08;;;;;;;7.68;3.72;;;;;;;23.51;70.27;101764.66;5006699;28;20324;-68
2021/09/06 10:47:40;;;;;;;8.10;4.28;;;;;;;23.37;69.27;101765.66;5009453;28;20041;-68
2021/09/06 10:50:16;;;;;;;9.13;4.10;;;;;;;23.39;69.91;101766.03;4988905;28;20414;-68
2021/09/06 10:52:44;;;;;;;11.00;4.20;;;;;;;23.30;69.62;101763.00;5005645;28;20113;-68
2021/09/06 10:55:12;;;;;;;9.73;4.40;;;;;;;23.16;69.57;101766.72;5012488;28;20088;-68
2021/09/06 10:57:38;;;;;;;7.97;4.07;;;;;;;23.06;69.44;101755.84;4993503;28;20536;-67
2021/09/06 11:00:06;;;;;;;7.68;4.20;;;;;;;23.23;70.02;101768.56;5012151;28;20041;-68
2021/09/06 11:02:32;;;;;;;8.98;3.67;;;;;;;23.47;69.11;101763.94;5005381;28;20034;-68
2021/09/06 11:04:58;;;;;;;8.60;3.90;;;;;;;23.58;67.98;101762.59;5010036;28;20380;-67
2021/09/06 11:07:24;;;;;;;8.23;3.92;;;;;;;23.66;65.80;101763.25;5009138;28;20021;-67
2021/09/06 11:09:50;;;;;;;8.20;3.70;;;;;;;23.67;65.61;101759.31;5003764;28;20038;-68
2021/09/06 11:12:16;;;;;;;7.55;3.60;;;;;;;23.57;68.38;101752.78;5012610;28;20054;-68
2021/09/06 11:14:45;;;;;;;8.73;4.45;;;;;;;23.56;67.02;101759.47;5011441;28;20021;-67
2021/09/06 11:17:18;;;;;;;6.95;3.45;;;;;;;23.49;67.96;101759.59;5002822;28;20064;-66
2021/09/06 11:19:45;;;;;;;10.98;4.22;;;;;;;23.59;66.64;101764.16;5006170;28;20057;-68
2021/09/06 11:22:16;;;;;;;8.90;4.18;;;;;;;23.68;64.92;101758.91;5004081;28;20021;-66
2021/09/06 11:24:43;;;;;;;10.63;4.17;;;;;;;23.53;65.79;101765.03;4997893;28;20066;-68
2021/09/06 11:27:26;;;;;;;8.25;3.72;;;;;;;23.44;65.26;101759.28;5002111;28;20033;-67